Time;durP1;ratioP1;P1;durP2;ratioP2;P2;SDS_P1;SDS_P2;PMS_P1;PMS_P2;Temp;Humidity;BMP_temperature;BMP_pressure;BME280_temperature;BME280_humidity;BME280_pressure;Samples;Min_cycle;Max_cycle;Signal;HPM_P1;HPM_P2
2023/06/10 00:00:41;;;;;;;8.73;2.80;;;15.00;99.90;;;;;;5017278;28;20025;-79
2023/06/10 00:03:08;;;;;;;5.10;2.85;;;15.00;99.90;;;;;;4999874;28;20034;-78
2023/06/10 00:05:34;;;;;;;5.55;3.00;;;15.00;99.90;;;;;;4998943;28;20022;-77
2023/06/10 00:08:06;;;;;;;6.07;2.90;;;15.00;99.90;;;;;;5017292;28;20041;-77
2023/06/10 00:10:33;;;;;;;6.72;4.22;;;14.90;99.90;;;;;;4999297;28;20078;-78
2023/06/10 00:12:59;;;;;;;6.15;2.97;;;14.80;99.90;;;;;;5017101;28;20030;-78
2023/06/10 00:15:25;;;;;;;6.90;3.28;;;14.90;99.90;;;;;;5016771;28;20018;-78
2023/06/10 00:17:52;;;;;;;6.82;3.63;;;14.90;99.90;;;;;;5017248;28;20529;-78
2023/06/10 00:20:18;;;;;;;10.90;3.88;;;14.90;99.90;;;;;;4999544;28;20805;-78
2023/06/10 00:22:45;;;;;;;10.70;3.95;;;14.90;99.90;;;;;;5017235;28;20026;-78
2023/06/10 00:25:11;;;;;;;7.80;3.30;;;15.00;99.90;;;;;;4999018;28;20105;-78
2023/06/10 00:27:36;;;;;;;8.55;3.60;;;14.90;99.90;;;;;;4999449;28;20037;-78
2023/06/10 00:30:06;;;;;;;9.38;3.50;;;14.90;99.90;;;;;;5017049;28;20022;-78
2023/06/10 00:32:33;;;;;;;10.20;3.78;;;14.90;99.90;;;;;;5017135;28;20429;-78
2023/06/10 00:34:59;;;;;;;6.65;3.35;;;14.80;99.90;;;;;;5016540;28;20037;-78
2023/06/10 00:37:24;;;;;;;7.50;3.60;;;14.70;99.90;;;;;;5017002;28;20033;-78
2023/06/10 00:39:51;;;;;;;6.47;3.40;;;14.70;99.90;;;;;;5016745;28;20707;-78
2023/06/10 00:42:16;;;;;;;10.52;4.07;;;14.70;99.90;;;;;;4998540;28;20038;-78
2023/06/10 00:44:42;;;;;;;9.95;3.90;;;14.70;99.90;;;;;;5016296;28;20145;-78
2023/06/10 00:47:08;;;;;;;9.55;3.97;;;14.70;99.90;;;;;;5016820;28;20033;-78
2023/06/10 00:49:34;;;;;;;8.60;3.45;;;14.70;99.90;;;;;;5016723;28;20022;-78
2023/06/10 00:52:02;;;;;;;9.40;4.15;;;14.70;99.90;;;;;;5016547;28;20018;-77
2023/06/10 00:54:28;;;;;;;8.45;5.03;;;14.70;99.90;;;;;;4998963;28;20394;-77
2023/06/10 00:56:55;;;;;;;11.27;3.92;;;14.70;99.90;;;;;;5010283;28;20055;-78
2023/06/10 00:59:20;;;;;;;7.40;3.50;;;14.70;99.90;;;;;;4979374;28;20020;-78
2023/06/10 01:01:49;;;;;;;8.38;3.35;;;14.70;99.90;;;;;;4997125;28;20022;-78
2023/06/10 01:04:19;;;;;;;11.27;4.13;;;14.70;99.90;;;;;;4979330;28;20034;-78
2023/06/10 01:07:01;;;;;;;5.83;3.63;;;14.70;99.90;;;;;;4996991;28;20037;-78
2023/06/10 01:09:57;;;;;;;9.32;3.50;;;14.70;99.90;;;;;;4996869;28;20490;-78
2023/06/10 01:12:41;;;;;;;7.43;3.50;;;14.80;99.90;;;;;;4988251;28;20411;-78
2023/06/10 01:15:09;;;;;;;8.55;2.85;;;14.80;99.90;;;;;;4996866;28;20038;-78
2023/06/10 01:17:53;;;;;;;6.05;3.00;;;14.80;99.90;;;;;;4987204;28;20450;-78
2023/06/10 01:20:19;;;;;;;6.35;3.13;;;14.70;99.90;;;;;;4979222;28;20026;-78
2023/06/10 01:22:45;;;;;;;6.13;2.95;;;14.70;99.90;;;;;;4996988;28;20430;-78
2023/06/10 01:25:11;;;;;;;8.73;2.95;;;14.70;99.90;;;;;;4998668;28;20050;-78
2023/06/10 01:27:39;;;;;;;7.82;3.25;;;14.70;99.90;;;;;;4982973;28;20488;-78
2023/06/10 01:30:13;;;;;;;8.07;2.72;;;14.70;99.90;;;;;;5000475;28;20030;-78
2023/06/10 01:32:45;;;;;;;5.28;2.88;;;14.70;99.90;;;;;;5000259;28;20018;-78
2023/06/10 01:35:11;;;;;;;8.15;3.20;;;14.70;99.90;;;;;;5000240;28;20568;-78
2023/06/10 01:37:39;;;;;;;6.10;3.10;;;14.70;99.90;;;;;;4982942;28;20102;-78
2023/06/10 01:40:06;;;;;;;7.13;2.80;;;14.60;99.90;;;;;;4984205;28;20379;-78
2023/06/10 01:42:33;;;;;;;11.55;3.30;;;14.60;99.90;;;;;;4998956;28;20403;-78
2023/06/10 01:44:59;;;;;;;6.20;3.38;;;14.60;99.90;;;;;;4982624;28;20165;-78
2023/06/10 01:47:24;;;;;;;3.35;2.78;;;14.50;99.90;;;;;;5000056;28;20057;-78
2023/06/10 01:49:50;;;;;;;7.75;2.88;;;14.60;99.90;;;;;;4999839;28;20081;-78
2023/06/10 01:52:16;;;;;;;6.05;3.03;;;14.60;99.90;;;;;;4999757;28;20085;-78
2023/06/10 01:54:42;;;;;;;4.60;2.83;;;14.50;99.90;;;;;;4999933;28;20027;-78
2023/06/10 01:57:08;;;;;;;5.78;3.00;;;14.50;99.90;;;;;;4999593;28;20053;-78
2023/06/10 01:59:33;;;;;;;5.07;2.65;;;14.50;99.90;;;;;;4999605;28;20019;-77
2023/06/10 02:01:59;;;;;;;4.97;2.67;;;14.40;99.90;;;;;;4999940;28;20062;-77
2023/06/10 02:04:25;;;;;;;6.35;3.10;;;14.50;99.90;;;;;;5004626;28;20037;-77
2023/06/10 02:06:51;;;;;;;6.78;3.20;;;14.50;99.90;;;;;;4981905;28;20026;-77
2023/06/10 02:09:18;;;;;;;10.52;3.30;;;14.40;99.90;;;;;;4981887;28;20627;-77
2023/06/10 02:11:44;;;;;;;8.65;3.25;;;14.40;99.90;;;;;;4999479;28;20026;-77
2023/06/10 02:14:10;;;;;;;5.50;3.13;;;14.40;99.90;;;;;;4999073;28;20399;-77
2023/06/10 02:16:35;;;;;;;11.77;3.00;;;14.40;99.90;;;;;;4999433;28;20027;-78
2023/06/10 02:19:02;;;;;;;4.90;3.25;;;14.40;99.90;;;;;;4999680;28;20094;-78
2023/06/10 02:21:28;;;;;;;5.72;3.20;;;14.40;99.90;;;;;;4999226;28;20085;-78
2023/06/10 02:23:54;;;;;;;5.97;3.28;;;14.40;99.90;;;;;;4999471;28;20022;-78
2023/06/10 02:26:20;;;;;;;8.30;3.60;;;14.40;99.90;;;;;;4999007;28;20038;-78
2023/06/10 02:28:45;;;;;;;8.50;3.38;;;14.40;99.90;;;;;;4999466;28;20097;-78
2023/06/10 02:31:11;;;;;;;6.07;3.30;;;14.40;99.90;;;;;;4981528;28;20041;-78
2023/06/10 02:33:39;;;;;;;6.80;3.05;;;14.30;99.90;;;;;;4999433;28;20030;-78
2023/06/10 02:36:06;;;;;;;5.35;3.60;;;14.40;99.90;;;;;;4997569;28;20117;-78
2023/06/10 02:38:31;;;;;;;9.07;3.35;;;14.40;99.90;;;;;;4999392;28;20031;-78
2023/06/10 02:40:57;;;;;;;4.65;3.50;;;14.30;99.90;;;;;;4998862;28;20029;-78
2023/06/10 02:43:22;;;;;;;14.18;3.85;;;14.30;99.90;;;;;;4999275;28;20101;-78
2023/06/10 02:45:48;;;;;;;10.77;3.40;;;14.30;99.90;;;;;;4981284;28;20509;-78
2023/06/10 02:48:14;;;;;;;8.10;3.10;;;14.30;99.90;;;;;;4981479;28;20026;-78
2023/06/10 02:50:40;;;;;;;9.63;3.45;;;14.20;99.90;;;;;;4980999;28;20478;-78
2023/06/10 02:53:06;;;;;;;10.85;3.40;;;14.20;99.90;;;;;;4998947;28;20060;-78
2023/06/10 02:55:32;;;;;;;11.05;3.55;;;14.20;99.90;;;;;;4998509;28;20023;-78
2023/06/10 02:57:59;;;;;;;6.05;3.30;;;14.20;99.90;;;;;;4998656;28;20096;-78
2023/06/10 03:00:25;;;;;;;6.15;3.45;;;14.20;99.90;;;;;;4980972;28;20026;-78
2023/06/10 03:02:50;;;;;;;7.63;3.67;;;14.20;99.90;;;;;;4998829;28;20080;-78
2023/06/10 03:05:16;;;;;;;7.60;3.17;;;14.20;99.90;;;;;;4997750;28;20027;-78
2023/06/10 03:07:42;;;;;;;11.07;4.25;;;14.20;99.90;;;;;;4998162;28;20599;-78
2023/06/10 03:10:08;;;;;;;8.30;4.55;;;14.20;99.90;;;;;;4997925;28;20046;-79
2023/06/10 03:12:34;;;;;;;8.10;3.78;;;14.20;99.90;;;;;;4998389;28;20022;-79
2023/06/10 03:15:00;;;;;;;8.70;3.92;;;14.10;99.90;;;;;;4998312;28;20044;-78
2023/06/10 03:17:25;;;;;;;7.53;4.85;;;14.20;99.90;;;;;;4998476;28;20019;-78
2023/06/10 03:19:51;;;;;;;13.85;4.60;;;14.20;99.90;;;;;;4998104;28;20036;-78
2023/06/10 03:22:17;;;;;;;15.10;3.97;;;14.30;99.90;;;;;;4998410;28;20023;-78
2023/06/10 03:24:43;;;;;;;14.55;3.95;;;14.30;99.90;;;;;;4998252;28;20026;-78
2023/06/10 03:27:13;;;;;;;10.50;3.33;;;14.20;99.90;;;;;;4980894;28;20026;-78
2023/06/10 03:29:39;;;;;;;6.95;3.40;;;14.20;99.90;;;;;;4998217;28;20026;-77
2023/06/10 03:32:05;;;;;;;8.55;3.35;;;14.20;99.90;;;;;;4998077;28;20034;-78
2023/06/10 03:34:31;;;;;;;6.60;3.65;;;14.20;99.90;;;;;;4996745;28;20049;-79
2023/06/10 03:36:57;;;;;;;9.10;3.35;;;14.10;99.90;;;;;;4980400;28;20446;-79
2023/06/10 03:39:25;;;;;;;6.78;3.58;;;14.10;99.90;;;;;;4980240;28;20133;-79
2023/06/10 03:41:51;;;;;;;7.78;3.33;;;14.10;99.90;;;;;;4997709;28;20430;-79
2023/06/10 03:44:17;;;;;;;8.00;3.55;;;14.20;99.90;;;;;;4997830;28;20057;-79
2023/06/10 03:46:42;;;;;;;7.63;3.25;;;14.10;99.90;;;;;;4997634;28;20029;-78
2023/06/10 03:49:09;;;;;;;7.32;3.72;;;14.00;99.90;;;;;;4997573;28;20069;-78
2023/06/10 03:51:35;;;;;;;6.97;3.80;;;14.00;99.90;;;;;;4980183;28;20030;-79
2023/06/10 03:54:01;;;;;;;9.48;3.53;;;14.00;99.90;;;;;;4997713;28;20080;-78
2023/06/10 03:56:28;;;;;;;9.18;3.67;;;14.00;99.90;;;;;;4997582;28;20039;-78
2023/06/10 03:58:54;;;;;;;10.80;4.03;;;14.00;99.90;;;;;;4997743;28;20035;-78
2023/06/10 04:01:20;;;;;;;9.63;4.55;;;13.90;99.90;;;;;;4997600;28;20486;-78
2023/06/10 04:03:51;;;;;;;8.10;3.78;;;13.90;99.90;;;;;;4999843;28;20474;-78
2023/06/10 04:06:17;;;;;;;8.20;3.83;;;13.90;99.90;;;;;;4998224;28;20037;-78
2023/06/10 04:08:42;;;;;;;13.48;5.05;;;13.90;99.90;;;;;;4997692;28;20023;-78
2023/06/10 04:11:09;;;;;;;15.70;4.55;;;13.80;99.90;;;;;;4997762;28;20035;-78
2023/06/10 04:13:34;;;;;;;6.80;3.80;;;13.80;99.90;;;;;;4997173;28;20450;-78
2023/06/10 04:16:00;;;;;;;10.50;4.75;;;13.80;99.90;;;;;;4978545;28;20019;-79
2023/06/10 04:18:26;;;;;;;11.50;5.30;;;13.80;99.90;;;;;;4997508;28;20030;-78
2023/06/10 04:20:52;;;;;;;13.10;5.38;;;13.80;99.90;;;;;;4997267;28;20113;-78
2023/06/10 04:23:18;;;;;;;9.88;4.28;;;13.80;99.90;;;;;;4997363;28;20045;-78
2023/06/10 04:25:43;;;;;;;11.23;4.50;;;13.90;99.90;;;;;;4997350;28;20018;-78
2023/06/10 04:28:09;;;;;;;9.00;4.65;;;13.80;99.90;;;;;;4997331;28;20379;-78
2023/06/10 04:30:35;;;;;;;11.73;4.13;;;13.80;99.90;;;;;;4997426;28;20372;-78
2023/06/10 04:33:00;;;;;;;9.45;4.60;;;13.90;99.90;;;;;;4979673;28;20026;-78
2023/06/10 04:35:29;;;;;;;12.60;4.55;;;13.90;99.90;;;;;;4997120;28;20110;-78
2023/06/10 04:37:54;;;;;;;11.35;4.15;;;13.90;99.90;;;;;;4979663;28;20030;-78
2023/06/10 04:40:20;;;;;;;7.65;4.38;;;13.80;99.90;;;;;;4976411;28;20019;-78
2023/06/10 04:42:46;;;;;;;11.63;4.65;;;13.80;99.90;;;;;;4993847;28;20050;-78
2023/06/10 04:45:11;;;;;;;9.27;4.70;;;13.80;99.90;;;;;;4997182;28;20031;-78
2023/06/10 04:47:37;;;;;;;9.02;4.50;;;13.90;99.90;;;;;;4997411;28;20045;-78
2023/06/10 04:50:04;;;;;;;11.15;5.03;;;14.00;99.90;;;;;;4979361;28;20040;-78
2023/06/10 04:52:29;;;;;;;12.45;5.38;;;14.10;99.90;;;;;;4979301;28;20049;-78
2023/06/10 04:54:56;;;;;;;7.38;4.60;;;14.10;99.90;;;;;;4979754;28;20470;-78
2023/06/10 04:57:21;;;;;;;10.00;4.68;;;14.20;99.90;;;;;;4996840;28;20070;-78
2023/06/10 04:59:47;;;;;;;13.75;5.25;;;14.20;99.90;;;;;;4998866;28;20077;-78
2023/06/10 05:02:13;;;;;;;14.80;5.70;;;14.30;99.90;;;;;;5000675;28;20062;-78
2023/06/10 05:04:39;;;;;;;17.83;5.75;;;14.30;99.90;;;;;;5000713;28;20113;-78
2023/06/10 05:07:05;;;;;;;11.88;5.40;;;14.40;99.90;;;;;;5000482;28;20037;-78
2023/06/10 05:09:30;;;;;;;15.50;5.35;;;14.40;99.90;;;;;;4983637;28;20037;-78
2023/06/10 05:11:56;;;;;;;11.93;5.85;;;14.40;99.90;;;;;;5000425;28;20030;-78
2023/06/10 05:14:22;;;;;;;17.13;6.18;;;14.50;99.90;;;;;;4978768;28;20027;-78
2023/06/10 05:16:48;;;;;;;11.68;5.75;;;14.50;99.90;;;;;;4997834;28;20115;-78
2023/06/10 05:19:16;;;;;;;16.88;6.72;;;14.70;99.90;;;;;;5000594;28;20019;-78
2023/06/10 05:21:41;;;;;;;12.77;5.72;;;14.70;99.90;;;;;;5000175;28;20019;-78
2023/06/10 05:24:07;;;;;;;13.30;6.45;;;14.80;99.90;;;;;;5000504;28;20403;-78
2023/06/10 05:26:37;;;;;;;15.65;5.97;;;15.00;99.90;;;;;;5000058;28;20030;-78
2023/06/10 05:29:03;;;;;;;12.20;5.63;;;15.10;99.90;;;;;;5000568;28;20030;-78
2023/06/10 05:31:28;;;;;;;11.00;5.05;;;15.10;99.90;;;;;;5000001;28;20070;-78
2023/06/10 05:33:54;;;;;;;8.63;4.95;;;15.10;99.90;;;;;;4982799;28;20046;-78
2023/06/10 05:36:20;;;;;;;14.55;5.40;;;15.10;99.90;;;;;;4999814;28;20033;-78
2023/06/10 05:38:46;;;;;;;9.23;4.72;;;15.20;99.90;;;;;;5000272;28;20014;-78
2023/06/10 05:41:12;;;;;;;9.68;5.38;;;15.20;99.90;;;;;;4999882;28;20022;-79
2023/06/10 05:43:38;;;;;;;9.70;5.03;;;15.40;99.90;;;;;;5000270;28;20454;-78
2023/06/10 05:46:03;;;;;;;11.48;5.30;;;15.40;99.90;;;;;;4982392;28;20026;-79
2023/06/10 05:48:29;;;;;;;11.00;4.93;;;15.50;99.90;;;;;;4982301;28;20510;-78
2023/06/10 05:50:55;;;;;;;16.63;5.68;;;15.60;99.90;;;;;;4998317;28;20414;-79
2023/06/10 05:53:20;;;;;;;11.52;5.40;;;15.70;99.90;;;;;;5000557;28;20069;-79
2023/06/10 05:55:46;;;;;;;11.60;5.25;;;15.80;99.90;;;;;;4982079;28;20030;-79
2023/06/10 05:58:13;;;;;;;13.98;5.63;;;15.80;99.90;;;;;;4999359;28;20058;-80
2023/06/10 06:00:40;;;;;;;11.02;4.80;;;15.90;99.90;;;;;;4978890;28;20034;-80
2023/06/10 06:03:09;;;;;;;14.43;6.47;;;16.00;99.90;;;;;;4997691;28;20022;-80
2023/06/10 06:05:38;;;;;;;13.25;5.70;;;16.20;99.90;;;;;;4997295;28;20050;-80
2023/06/10 06:08:07;;;;;;;11.40;5.68;;;16.10;99.90;;;;;;4981906;28;20399;-80
2023/06/10 06:10:33;;;;;;;13.68;5.30;;;16.20;99.90;;;;;;4999148;28;20027;-80
2023/06/10 06:13:00;;;;;;;10.30;4.90;;;16.20;99.90;;;;;;4999252;28;20062;-80
2023/06/10 06:15:25;;;;;;;12.27;4.78;;;16.20;99.90;;;;;;4999320;28;20033;-79
2023/06/10 06:17:52;;;;;;;9.95;5.50;;;16.30;99.90;;;;;;4981806;28;20482;-80
2023/06/10 06:20:22;;;;;;;13.25;5.45;;;16.40;99.90;;;;;;4999050;28;20023;-79
2023/06/10 06:22:47;;;;;;;9.10;4.65;;;16.50;99.90;;;;;;4999243;28;20498;-82
2023/06/10 06:25:13;;;;;;;10.93;4.70;;;16.60;99.90;;;;;;4981575;28;20414;-81
2023/06/10 06:27:39;;;;;;;11.48;5.20;;;16.70;99.90;;;;;;4999446;28;20037;-81
2023/06/10 06:30:05;;;;;;;10.70;6.45;;;16.80;99.90;;;;;;4999065;28;20027;-81
2023/06/10 06:32:31;;;;;;;10.30;4.43;;;16.80;99.90;;;;;;4999316;28;20390;-79
2023/06/10 06:34:57;;;;;;;8.65;4.50;;;17.00;99.90;;;;;;4998570;28;20225;-80
2023/06/10 06:37:23;;;;;;;9.18;4.63;;;17.10;99.90;;;;;;4999014;28;20086;-79
2023/06/10 06:39:53;;;;;;;7.13;4.30;;;17.30;99.90;;;;;;4998625;28;20031;-78
2023/06/10 06:42:20;;;;;;;7.35;3.80;;;17.40;99.90;;;;;;4998286;28;20022;-78
2023/06/10 06:44:47;;;;;;;5.93;3.40;;;17.40;99.90;;;;;;4998789;28;20033;-79
2023/06/10 06:47:13;;;;;;;11.38;4.07;;;17.60;99.90;;;;;;4998830;28;20030;-78
2023/06/10 06:49:39;;;;;;;9.75;3.15;;;17.60;99.90;;;;;;4997021;28;20106;-79
2023/06/10 06:52:05;;;;;;;5.65;3.55;;;17.60;99.90;;;;;;4998662;28;20565;-77
2023/06/10 06:54:31;;;;;;;17.30;3.92;;;17.80;99.90;;;;;;4989430;28;20030;-76
2023/06/10 06:56:57;;;;;;;13.23;3.72;;;17.80;99.90;;;;;;4998466;28;20085;-78
2023/06/10 06:59:22;;;;;;;6.10;3.40;;;17.90;99.90;;;;;;4981259;28;20038;-77
2023/06/10 07:01:48;;;;;;;7.80;2.90;;;17.90;99.90;;;;;;4981111;28;20046;-77
2023/06/10 07:04:15;;;;;;;6.43;3.17;;;18.00;99.90;;;;;;4980594;28;20469;-77
2023/06/10 07:06:41;;;;;;;7.45;3.28;;;18.20;99.90;;;;;;4981023;28;20085;-78
2023/06/10 07:09:10;;;;;;;4.78;2.83;;;18.40;99.90;;;;;;4980646;28;20022;-77
2023/06/10 07:11:36;;;;;;;5.85;3.20;;;18.60;99.90;;;;;;4998256;28;20613;-77
2023/06/10 07:14:01;;;;;;;11.48;3.22;;;18.80;99.90;;;;;;4998080;28;20026;-77
2023/06/10 07:16:27;;;;;;;4.15;3.10;;;18.80;99.90;;;;;;4998353;28;20579;-77
2023/06/10 07:18:53;;;;;;;5.45;2.78;;;19.00;99.90;;;;;;4998274;28;20023;-77
2023/06/10 07:21:19;;;;;;;9.95;2.95;;;19.00;99.90;;;;;;4998027;28;20019;-76
2023/06/10 07:23:45;;;;;;;5.38;2.47;;;19.00;99.90;;;;;;4995959;28;20521;-77
2023/06/10 07:26:13;;;;;;;9.02;2.67;;;19.10;99.90;;;;;;4997790;28;20030;-77
2023/06/10 07:28:40;;;;;;;7.35;2.78;;;19.20;99.90;;;;;;4972215;28;20060;-76
2023/06/10 07:31:06;;;;;;;9.93;3.22;;;19.40;99.90;;;;;;4997739;28;20062;-76
2023/06/10 07:33:32;;;;;;;4.05;3.10;;;19.40;99.90;;;;;;4998040;28;20023;-76
2023/06/10 07:35:58;;;;;;;2.95;2.25;;;19.50;99.90;;;;;;4997596;28;20364;-76
2023/06/10 07:38:25;;;;;;;5.75;2.75;;;19.60;99.90;;;;;;4997956;28;20026;-76
2023/06/10 07:40:51;;;;;;;5.10;2.42;;;19.70;99.90;;;;;;4987126;28;20018;-76
2023/06/10 07:43:17;;;;;;;10.55;3.97;;;19.90;99.90;;;;;;4970141;28;20042;-76
2023/06/10 07:45:43;;;;;;;8.93;2.72;;;20.10;99.90;;;;;;4997615;28;20023;-77
2023/06/10 07:48:09;;;;;;;4.38;2.33;;;20.20;99.90;;;;;;4997914;28;20019;-76
2023/06/10 07:50:35;;;;;;;3.83;2.00;;;20.30;99.90;;;;;;4979971;28;20022;-76
2023/06/10 07:53:01;;;;;;;6.30;2.38;;;20.50;99.90;;;;;;4997600;28;20021;-77
2023/06/10 07:55:27;;;;;;;5.32;2.38;;;20.70;99.90;;;;;;4979784;28;20038;-77
2023/06/10 07:57:53;;;;;;;7.68;2.10;;;20.80;99.90;;;;;;4997511;28;20129;-77
2023/06/10 08:00:20;;;;;;;6.20;2.00;;;20.90;99.90;;;;;;4997534;28;20049;-76
2023/06/10 08:02:45;;;;;;;5.32;1.92;;;21.00;99.90;;;;;;4997753;28;20034;-76
2023/06/10 08:05:11;;;;;;;8.68;2.13;;;21.20;99.90;;;;;;4977458;28;20026;-76
2023/06/10 08:07:37;;;;;;;5.05;2.08;;;21.30;99.90;;;;;;4997548;28;20030;-76
2023/06/10 08:10:06;;;;;;;5.30;1.92;;;21.40;99.90;;;;;;4997345;28;20530;-76
2023/06/10 08:12:33;;;;;;;5.63;2.17;;;21.50;99.90;;;;;;4997305;28;20044;-76
2023/06/10 08:14:59;;;;;;;3.17;1.52;;;21.60;99.90;;;;;;4979852;28;20025;-76
2023/06/10 08:17:25;;;;;;;2.38;1.48;;;21.60;99.90;;;;;;4997322;28;20042;-76
2023/06/10 08:19:50;;;;;;;2.88;1.30;;;21.60;99.90;;;;;;4979537;28;20438;-77
2023/06/10 08:22:16;;;;;;;3.85;2.00;;;21.70;99.90;;;;;;4997277;28;20031;-76
2023/06/10 08:24:42;;;;;;;2.95;1.40;;;21.60;99.90;;;;;;4979829;28;20121;-77
2023/06/10 08:27:07;;;;;;;6.68;1.92;;;21.80;99.90;;;;;;4979659;28;20030;-77
2023/06/10 08:29:33;;;;;;;1.88;1.33;;;21.70;99.90;;;;;;4997319;28;20029;-77
2023/06/10 08:31:59;;;;;;;2.63;1.70;;;21.90;99.90;;;;;;4997231;28;20042;-77
2023/06/10 08:34:25;;;;;;;1.90;1.20;;;22.00;99.90;;;;;;4999907;28;20023;-77
2023/06/10 08:36:55;;;;;;;5.78;1.77;;;22.10;99.90;;;;;;5000996;28;20026;-77
2023/06/10 08:39:22;;;;;;;2.92;1.98;;;22.10;99.90;;;;;;5001176;28;20027;-77
2023/06/10 08:42:16;;;;;;;4.13;1.60;;;22.10;99.90;;;;;;5000941;28;20032;-77
2023/06/10 08:44:42;;;;;;;2.53;1.40;;;22.20;99.90;;;;;;4991454;28;20117;-76
2023/06/10 08:47:16;;;;;;;1.80;1.45;;;22.30;99.90;;;;;;4983690;28;20430;-77
2023/06/10 08:49:45;;;;;;;1.92;1.38;;;22.40;99.90;;;;;;5000807;28;20025;-76
2023/06/10 08:52:18;;;;;;;4.95;1.70;;;22.40;99.90;;;;;;5001065;28;20057;-76
2023/06/10 08:54:58;;;;;;;4.45;1.60;;;22.50;99.90;;;;;;5000690;28;20101;-76
2023/06/10 08:57:25;;;;;;;3.35;1.70;;;22.60;99.90;;;;;;5000808;28;20038;-76
2023/06/10 08:59:53;;;;;;;3.67;1.67;;;22.60;99.90;;;;;;5000964;28;20025;-76
2023/06/10 09:02:20;;;;;;;3.85;1.52;;;22.70;99.90;;;;;;5000735;28;20046;-76
2023/06/10 09:04:47;;;;;;;4.90;1.40;;;22.80;99.90;;;;;;5005376;28;20033;-77
2023/06/10 09:07:15;;;;;;;3.30;1.42;;;22.90;99.90;;;;;;5000516;28;20030;-76
2023/06/10 09:09:43;;;;;;;4.93;1.60;;;23.00;99.90;;;;;;4982890;28;20023;-76
2023/06/10 09:12:09;;;;;;;3.40;1.63;;;23.20;99.90;;;;;;5000467;28;20030;-76
2023/06/10 09:14:35;;;;;;;5.53;1.70;;;23.30;99.90;;;;;;5000250;28;20022;-76
2023/06/10 09:17:01;;;;;;;3.60;1.52;;;23.30;99.90;;;;;;5000400;28;20022;-76
2023/06/10 09:19:28;;;;;;;1.90;1.20;;;23.30;99.90;;;;;;5000249;28;20018;-76
2023/06/10 09:21:54;;;;;;;4.55;1.58;;;23.30;99.90;;;;;;4982758;28;20391;-77
2023/06/10 09:24:22;;;;;;;4.20;1.52;;;23.30;99.90;;;;;;5000363;28;20049;-76
2023/06/10 09:26:47;;;;;;;3.75;1.35;;;23.40;99.90;;;;;;5000122;28;20451;-76
2023/06/10 09:29:13;;;;;;;2.58;1.52;;;23.40;99.90;;;;;;5000244;28;20085;-76
2023/06/10 09:31:40;;;;;;;2.38;1.40;;;23.40;99.90;;;;;;5000238;28;20030;-76
2023/06/10 09:34:07;;;;;;;2.85;1.55;;;23.40;99.90;;;;;;4999981;28;20044;-76
2023/06/10 09:36:35;;;;;;;3.83;1.67;;;23.50;99.90;;;;;;4999838;28;20018;-75
2023/06/10 09:39:00;;;;;;;2.15;1.60;;;23.60;99.90;;;;;;4999942;28;20435;-77
2023/06/10 09:41:39;;;;;;;3.50;1.40;;;23.60;99.90;;;;;;4982280;28;20026;-76
2023/06/10 09:44:13;;;;;;;3.92;1.58;;;23.60;99.90;;;;;;4993919;28;20030;-76
2023/06/10 09:46:38;;;;;;;2.42;1.48;;;23.80;99.90;;;;;;4999274;28;20568;-77
2023/06/10 09:49:04;;;;;;;2.83;1.52;;;23.90;99.90;;;;;;4999973;28;20065;-77
2023/06/10 09:51:30;;;;;;;2.55;1.67;;;24.00;99.90;;;;;;4999608;28;20121;-76
2023/06/10 09:53:55;;;;;;;3.92;1.92;;;24.00;99.90;;;;;;4999874;28;20036;-75
2023/06/10 09:56:32;;;;;;;3.70;1.27;;;24.00;99.90;;;;;;4999417;28;20041;-76
2023/06/10 09:58:57;;;;;;;5.50;1.73;;;24.10;99.90;;;;;;4999882;28;20035;-76
2023/06/10 10:01:24;;;;;;;3.00;1.50;;;24.20;99.90;;;;;;4998524;28;20022;-76
2023/06/10 10:03:51;;;;;;;2.80;1.40;;;24.30;99.90;;;;;;4982676;28;20070;-76
2023/06/10 10:06:18;;;;;;;4.53;1.90;;;24.50;99.90;;;;;;4999371;28;20030;-76
2023/06/10 10:08:47;;;;;;;2.78;1.38;;;24.40;99.90;;;;;;4999242;28;20086;-76
2023/06/10 10:11:13;;;;;;;8.00;1.63;;;24.40;99.90;;;;;;4999183;28;20050;-76
2023/06/10 10:13:40;;;;;;;4.00;1.73;;;24.50;99.90;;;;;;4999260;28;20067;-76
2023/06/10 10:16:16;;;;;;;2.05;1.50;;;24.60;99.90;;;;;;4981724;28;20026;-76
2023/06/10 10:19:05;;;;;;;5.70;1.70;;;24.70;99.90;;;;;;4999149;28;20023;-76
2023/06/10 10:21:37;;;;;;;5.10;1.60;;;24.70;99.90;;;;;;4998826;28;20030;-76
2023/06/10 10:24:12;;;;;;;3.13;1.55;;;24.80;99.90;;;;;;4999370;28;20077;-76
2023/06/10 10:26:39;;;;;;;2.65;1.40;;;24.90;99.90;;;;;;4998644;28;20050;-76
2023/06/10 10:29:22;;;;;;;2.25;1.50;;;25.00;99.90;;;;;;4999251;28;20081;-78
2023/06/10 10:31:50;;;;;;;2.42;1.00;;;25.10;99.90;;;;;;4996561;28;20027;-77
2023/06/10 10:34:21;;;;;;;2.97;1.27;;;25.20;99.90;;;;;;4998556;28;20563;-76
2023/06/10 10:36:47;;;;;;;2.05;1.40;;;25.00;99.90;;;;;;4993936;28;20031;-77
2023/06/10 10:39:14;;;;;;;4.28;1.27;;;25.00;99.90;;;;;;4981451;28;20121;-77
2023/06/10 10:41:40;;;;;;;2.53;1.10;;;24.90;99.90;;;;;;4997391;28;20026;-77
2023/06/10 10:44:11;;;;;;;5.20;1.63;;;25.00;99.90;;;;;;4981160;28;20033;-75
2023/06/10 10:46:44;;;;;;;3.05;1.33;;;24.90;99.90;;;;;;4998867;28;20118;-76
2023/06/10 10:49:13;;;;;;;1.13;0.88;;;25.00;99.90;;;;;;4998520;28;20030;-76
2023/06/10 10:51:58;;;;;;;5.05;1.27;;;25.10;99.90;;;;;;4998426;28;20113;-76
2023/06/10 10:54:31;;;;;;;4.47;1.30;;;25.30;99.90;;;;;;4998387;28;20037;-77
2023/06/10 10:57:28;;;;;;;1.92;1.10;;;25.20;99.90;;;;;;4997411;28;20066;-75
2023/06/10 11:00:03;;;;;;;1.80;1.27;;;25.30;99.90;;;;;;4980235;28;20082;-76
2023/06/10 11:02:37;;;;;;;1.50;1.10;;;25.40;99.90;;;;;;4997040;28;20026;-76
2023/06/10 11:05:03;;;;;;;3.88;1.00;;;25.60;99.90;;;;;;5005381;28;20029;-76
2023/06/10 11:07:30;;;;;;;1.65;1.10;;;25.60;99.90;;;;;;4980548;28;20030;-75
2023/06/10 11:10:01;;;;;;;3.20;0.90;;;25.60;99.90;;;;;;4997843;28;20108;-76
2023/06/10 11:12:40;;;;;;;3.35;1.27;;;25.60;99.90;;;;;;4998291;28;20037;-76
2023/06/10 11:15:06;;;;;;;1.60;1.08;;;25.70;99.90;;;;;;4993708;28;20030;-75
2023/06/10 11:17:32;;;;;;;2.28;1.30;;;25.70;99.90;;;;;;4998256;28;20034;-75
2023/06/10 11:19:59;;;;;;;1.80;1.17;;;25.90;99.90;;;;;;4997653;28;20027;-78
2023/06/10 11:22:25;;;;;;;2.05;1.10;;;25.90;99.90;;;;;;4998336;28;20364;-74
2023/06/10 11:24:51;;;;;;;1.92;1.20;;;26.10;99.90;;;;;;4995451;28;20092;-75
2023/06/10 11:27:21;;;;;;;2.55;1.27;;;26.20;99.90;;;;;;4997739;28;20054;-75
2023/06/10 11:30:03;;;;;;;2.10;1.10;;;26.30;99.90;;;;;;4997967;28;20023;-75
2023/06/10 11:32:34;;;;;;;2.15;1.15;;;26.60;99.90;;;;;;4997861;28;20026;-75
2023/06/10 11:35:03;;;;;;;3.00;1.02;;;26.60;99.90;;;;;;4997100;28;20109;-75
2023/06/10 11:37:29;;;;;;;2.28;1.17;;;26.50;99.90;;;;;;4997297;28;20041;-75
2023/06/10 11:39:55;;;;;;;2.08;1.20;;;26.30;99.90;;;;;;4997363;28;20027;-73
2023/06/10 11:42:22;;;;;;;1.38;0.98;;;26.20;99.90;;;;;;4980130;28;20113;-75
2023/06/10 11:44:54;;;;;;;1.58;1.15;;;26.30;99.90;;;;;;4990660;28;20461;-75
2023/06/10 11:47:21;;;;;;;2.42;1.15;;;26.50;99.90;;;;;;4991580;28;20038;-74
2023/06/10 11:49:56;;;;;;;2.83;1.30;;;26.80;99.90;;;;;;4997073;28;20044;-74
2023/06/10 11:52:32;;;;;;;3.30;1.27;;;27.00;99.90;;;;;;4997547;28;20106;-76
2023/06/10 11:54:57;;;;;;;2.15;0.88;;;27.30;99.90;;;;;;4997374;28;20103;-75
2023/06/10 11:57:23;;;;;;;3.10;1.40;;;27.60;99.90;;;;;;4969760;28;20076;-75
2023/06/10 11:59:49;;;;;;;2.70;1.30;;;27.50;99.90;;;;;;4997206;28;20479;-75
2023/06/10 12:02:16;;;;;;;1.75;0.82;;;27.10;99.90;;;;;;4979360;28;20502;-74
2023/06/10 12:04:42;;;;;;;1.83;1.00;;;27.10;99.90;;;;;;4997978;28;20029;-75
2023/06/10 12:07:07;;;;;;;1.65;0.77;;;27.10;99.90;;;;;;4997156;28;20030;-75
2023/06/10 12:09:33;;;;;;;6.57;1.08;;;27.00;99.90;;;;;;4997181;28;20026;-75
2023/06/10 12:12:04;;;;;;;1.23;0.80;;;26.70;99.90;;;;;;4979882;28;20026;-75
2023/06/10 12:14:54;;;;;;;3.00;1.25;;;26.80;99.90;;;;;;4979531;28;20169;-75
2023/06/10 12:17:32;;;;;;;2.17;1.27;;;26.80;99.90;;;;;;4997083;28;20506;-75
2023/06/10 12:19:59;;;;;;;1.30;0.70;;;26.80;99.90;;;;;;4997077;28;20029;-74
2023/06/10 12:22:26;;;;;;;1.75;0.98;;;27.00;99.90;;;;;;4996935;28;20418;-75
2023/06/10 12:25:06;;;;;;;2.88;1.10;;;27.30;99.90;;;;;;4979701;28;20054;-74
2023/06/10 12:27:33;;;;;;;;;;;27.40;99.90;;;;;;4997171;28;20031;-74
2023/06/10 12:30:04;;;;;;;1.70;0.90;;;27.30;99.90;;;;;;4996931;28;19906;-74
2023/06/10 12:32:56;;;;;;;2.97;1.08;;;27.60;99.90;;;;;;4996983;28;20034;-74
2023/06/10 12:35:27;;;;;;;5.75;1.60;;;27.80;99.90;;;;;;4975768;28;20085;-74
2023/06/10 12:38:00;;;;;;;2.33;0.90;;;28.00;99.90;;;;;;4996660;28;20113;-74
2023/06/10 12:40:31;;;;;;;1.45;0.90;;;28.10;99.90;;;;;;4979411;28;20034;-74
2023/06/10 12:42:57;;;;;;;3.78;1.00;;;28.10;99.90;;;;;;4996828;28;20011;-74
2023/06/10 12:45:31;;;;;;;1.25;0.77;;;28.30;99.90;;;;;;4996994;28;20035;-74
2023/06/10 12:48:09;;;;;;;3.35;0.93;;;28.30;99.90;;;;;;4996715;28;20057;-74